createdAt,value
2023-02-04T00:00:17.962Z,5.43
2023-02-04T00:02:47.287Z,6.03
2023-02-04T00:05:17.412Z,5.70
2023-02-04T00:07:45.208Z,5.83
2023-02-04T00:10:13.003Z,5.50
2023-02-04T00:12:40.801Z,5.50
2023-02-04T00:15:10.699Z,6.43
2023-02-04T00:17:39.373Z,5.53
2023-02-04T00:20:09.516Z,5.93
2023-02-04T00:22:37.310Z,5.67
2023-02-04T00:25:05.510Z,7.03
2023-02-04T00:27:33.359Z,6.10
2023-02-04T00:30:01.603Z,5.43
2023-02-04T00:32:29.334Z,5.70
2023-02-04T00:34:57.102Z,6.70
2023-02-04T00:37:26.215Z,7.53
2023-02-04T00:39:54.060Z,7.17
2023-02-04T00:42:21.870Z,6.53
2023-02-04T00:44:49.701Z,5.53
2023-02-04T00:47:18.130Z,6.77
2023-02-04T00:49:46.041Z,6.73
2023-02-04T00:52:13.819Z,6.03
2023-02-04T00:54:43.525Z,5.73
2023-02-04T00:57:11.299Z,6.23
2023-02-04T00:59:39.165Z,5.93
2023-02-04T01:02:07.028Z,6.23
2023-02-04T01:04:36.224Z,6.37
2023-02-04T01:07:04.051Z,6.33
2023-02-04T01:09:32.052Z,6.57
2023-02-04T01:12:01.191Z,6.10
2023-02-04T01:14:28.985Z,5.60
2023-02-04T01:16:56.785Z,6.07
2023-02-04T01:19:24.546Z,6.07
2023-02-04T01:21:52.382Z,6.00
2023-02-04T01:24:20.154Z,5.93
2023-02-04T01:27:09.539Z,6.40
2023-02-04T01:29:37.360Z,5.47
2023-02-04T01:32:05.268Z,5.90
2023-02-04T01:34:33.129Z,5.63
2023-02-04T01:37:00.902Z,5.40
2023-02-04T01:39:28.660Z,6.33
2023-02-04T01:41:56.489Z,6.87
2023-02-04T01:44:25.773Z,5.63
2023-02-04T01:46:53.631Z,5.63
2023-02-04T01:49:21.850Z,6.57
2023-02-04T01:51:49.740Z,5.10
2023-02-04T01:54:18.503Z,6.67
2023-02-04T01:56:49.051Z,5.53
2023-02-04T01:59:18.791Z,5.60
2023-02-04T02:01:49.550Z,5.73
2023-02-04T02:04:21.338Z,5.23
2023-02-04T02:06:53.839Z,6.10
2023-02-04T02:09:22.102Z,5.83
2023-02-04T02:11:50.123Z,5.20
2023-02-04T02:14:18.274Z,4.83
2023-02-04T02:16:47.507Z,5.33
2023-02-04T02:19:20.487Z,5.27
2023-02-04T02:21:55.405Z,5.73
2023-02-04T02:24:30.459Z,6.03
2023-02-04T02:27:01.653Z,5.67
2023-02-04T02:29:29.630Z,6.07
2023-02-04T02:31:58.635Z,5.67
2023-02-04T02:34:28.484Z,5.60
2023-02-04T02:36:56.803Z,5.90
2023-02-04T02:39:25.542Z,5.50
2023-02-04T02:41:56.016Z,5.17
2023-02-04T02:44:24.859Z,4.63
2023-02-04T02:46:52.991Z,5.63
2023-02-04T02:49:21.611Z,6.67
2023-02-04T02:51:50.065Z,6.93
2023-02-04T02:54:24.116Z,6.83
2023-02-04T02:56:56.273Z,6.07
2023-02-04T02:59:25.934Z,5.90
2023-02-04T03:01:57.950Z,6.23
2023-02-04T03:04:30.120Z,5.33
2023-02-04T03:06:58.030Z,5.60
2023-02-04T03:09:28.292Z,6.50
2023-02-04T03:11:57.577Z,6.10
2023-02-04T03:14:26.118Z,5.93
2023-02-04T03:16:55.896Z,5.77
2023-02-04T03:19:24.688Z,5.67
2023-02-04T03:21:52.799Z,7.37
2023-02-04T03:24:22.778Z,6.00
2023-02-04T03:26:50.620Z,6.03
2023-02-04T03:29:19.823Z,5.43
2023-02-04T03:31:47.806Z,5.80
2023-02-04T03:34:15.631Z,5.70
2023-02-04T03:36:43.404Z,5.80
2023-02-04T03:39:11.163Z,5.83
2023-02-04T03:41:38.902Z,6.13
2023-02-04T03:44:06.633Z,6.17
2023-02-04T03:46:35.878Z,6.37
2023-02-04T03:49:03.744Z,6.53
2023-02-04T03:51:31.472Z,6.83
2023-02-04T03:53:59.278Z,6.00
2023-02-04T03:56:27.053Z,5.73
2023-02-04T03:58:54.792Z,5.57
2023-02-04T04:01:22.590Z,6.20
2023-02-04T04:03:51.707Z,6.30
2023-02-04T04:06:19.488Z,6.57
2023-02-04T04:08:47.274Z,6.10
2023-02-04T04:11:15.403Z,6.73
2023-02-04T04:13:43.276Z,6.37
2023-02-04T04:16:11.041Z,6.40
2023-02-04T04:18:38.884Z,6.23
2023-02-04T04:21:08.199Z,5.83
2023-02-04T04:23:36.055Z,6.50
2023-02-04T04:26:03.820Z,6.47
2023-02-04T04:28:31.644Z,6.10
2023-02-04T04:30:59.558Z,7.10
2023-02-04T04:33:27.539Z,5.57
2023-02-04T04:35:55.372Z,6.07
2023-02-04T04:38:24.649Z,6.30
2023-02-04T04:40:52.469Z,6.40
2023-02-04T04:43:20.952Z,6.03
2023-02-04T04:45:48.851Z,6.07
2023-02-04T04:48:16.690Z,5.70
2023-02-04T04:50:44.403Z,5.93
2023-02-04T04:53:12.171Z,6.27
2023-02-04T04:55:41.474Z,7.13
2023-02-04T04:58:09.672Z,6.63
2023-02-04T05:00:37.480Z,6.43
2023-02-04T05:03:05.235Z,5.40
2023-02-04T05:05:34.038Z,6.30
2023-02-04T05:08:01.824Z,5.93
2023-02-04T05:10:29.762Z,6.23
2023-02-04T05:12:59.242Z,5.90
2023-02-04T05:15:27.097Z,6.33
2023-02-04T05:17:54.873Z,6.10
2023-02-04T05:20:22.760Z,6.23
2023-02-04T05:22:51.003Z,5.73
2023-02-04T05:25:18.865Z,5.47
2023-02-04T05:27:46.920Z,6.57
2023-02-04T05:30:16.597Z,6.97
2023-02-04T05:32:44.418Z,6.53
2023-02-04T05:35:12.300Z,6.20
2023-02-04T05:37:40.040Z,6.47
2023-02-04T05:40:09.028Z,6.83
2023-02-04T05:42:36.753Z,6.07
2023-02-04T05:45:04.925Z,5.90
2023-02-04T05:47:34.182Z,5.87
2023-02-04T05:50:01.918Z,6.53
2023-02-04T05:52:29.880Z,6.30
2023-02-04T05:54:57.673Z,6.27
2023-02-04T05:57:25.553Z,5.77
2023-02-04T05:59:53.336Z,6.17
2023-02-04T06:02:22.194Z,6.23
2023-02-04T06:04:51.347Z,5.37
2023-02-04T06:07:19.139Z,5.67
2023-02-04T06:09:46.867Z,6.23
2023-02-04T06:12:14.602Z,6.00
2023-02-04T06:14:42.371Z,6.27
2023-02-04T06:17:10.299Z,6.47
2023-02-04T06:19:38.284Z,6.57
2023-02-04T06:22:07.630Z,5.80
2023-02-04T06:24:36.039Z,5.63
2023-02-04T06:27:03.956Z,6.40
2023-02-04T06:29:31.761Z,6.47
2023-02-04T06:31:59.583Z,6.83
2023-02-04T06:34:27.400Z,6.37
2023-02-04T06:36:55.124Z,6.67
2023-02-04T06:39:24.396Z,6.63
2023-02-04T06:41:52.173Z,5.97
2023-02-04T06:44:19.939Z,6.80
2023-02-04T06:46:47.689Z,6.50
2023-02-04T06:49:15.474Z,5.97
2023-02-04T06:51:43.264Z,6.50
2023-02-04T06:54:11.211Z,5.83
2023-02-04T06:56:40.346Z,6.03
2023-02-04T06:59:08.070Z,5.33
2023-02-04T07:01:35.826Z,6.47
2023-02-04T07:04:03.643Z,6.00
2023-02-04T07:06:31.373Z,6.87
2023-02-04T07:08:59.138Z,6.00
2023-02-04T07:11:26.900Z,6.60
2023-02-04T07:13:56.049Z,7.47
2023-02-04T07:16:23.794Z,6.33
2023-02-04T07:18:51.518Z,6.07
2023-02-04T07:21:19.258Z,6.13
2023-02-04T07:23:47.026Z,5.97
2023-02-04T07:26:14.789Z,7.23
2023-02-04T07:28:43.489Z,6.63
2023-02-04T07:31:12.673Z,5.53
2023-02-04T07:33:40.472Z,6.37
2023-02-04T07:36:08.916Z,5.80
2023-02-04T07:38:36.740Z,7.37
2023-02-04T07:41:04.553Z,6.37
2023-02-04T07:43:32.405Z,7.37
2023-02-04T07:46:00.218Z,7.03
2023-02-04T07:48:29.343Z,7.97
2023-02-04T07:50:57.118Z,6.87
2023-02-04T07:53:24.858Z,6.73
2023-02-04T07:55:52.637Z,7.57
2023-02-04T07:58:20.496Z,6.47
2023-02-04T08:00:48.281Z,6.53
2023-02-04T08:03:16.057Z,6.70
2023-02-04T08:05:45.271Z,6.80
2023-02-04T08:08:13.145Z,7.73
2023-02-04T08:10:41.001Z,5.83
2023-02-04T08:13:08.911Z,6.67
2023-02-04T08:15:36.744Z,7.70
2023-02-04T08:18:04.924Z,8.53
2023-02-04T08:20:33.080Z,7.57
2023-02-04T08:23:03.235Z,8.97
2023-02-04T08:25:31.132Z,12.00
2023-02-04T08:27:58.899Z,9.00
2023-02-04T08:30:27.074Z,8.90
2023-02-04T08:32:54.848Z,9.37
2023-02-04T08:35:22.665Z,9.87
2023-02-04T08:37:50.448Z,9.77
2023-02-04T08:40:20.607Z,9.20
2023-02-04T08:42:48.649Z,8.93
2023-02-04T08:45:16.567Z,8.20
2023-02-04T08:47:44.371Z,7.47
2023-02-04T08:50:12.476Z,8.50
2023-02-04T08:52:40.386Z,7.13
2023-02-04T08:55:09.715Z,8.97
2023-02-04T08:57:38.903Z,7.77
2023-02-04T09:00:08.066Z,9.03
2023-02-04T09:02:35.879Z,7.20
2023-02-04T09:05:04.191Z,7.77
2023-02-04T09:07:31.942Z,8.57
2023-02-04T09:09:59.679Z,7.70
2023-02-04T09:12:27.524Z,7.80
2023-02-04T09:14:56.751Z,8.27
2023-02-04T09:17:24.591Z,7.20
2023-02-04T09:19:52.332Z,7.30
2023-02-04T09:22:20.120Z,7.63
2023-02-04T09:24:47.904Z,8.05
2023-02-04T09:27:15.646Z,7.93
2023-02-04T09:29:43.480Z,7.95
2023-02-04T09:32:12.704Z,8.53
2023-02-04T09:34:40.583Z,7.82
2023-02-04T09:37:08.579Z,8.07
2023-02-04T09:39:36.353Z,8.55
2023-02-04T09:42:04.343Z,7.95
2023-02-04T09:44:32.193Z,7.32
2023-02-04T09:47:01.952Z,9.85
2023-02-04T09:49:31.264Z,8.68
2023-02-04T09:52:00.338Z,8.57
2023-02-04T09:54:28.274Z,7.63
2023-02-04T09:56:57.457Z,8.57
2023-02-04T09:59:28.403Z,7.85
2023-02-04T10:02:00.885Z,8.43
2023-02-04T10:04:29.617Z,7.88
2023-02-04T10:06:59.519Z,8.27
2023-02-04T10:09:27.747Z,7.97
2023-02-04T10:11:55.727Z,7.35
2023-02-04T10:14:24.463Z,6.90
2023-02-04T10:16:59.107Z,7.70
2023-02-04T10:19:29.770Z,6.93
2023-02-04T10:21:59.425Z,7.70
2023-02-04T10:24:30.556Z,7.45
2023-02-04T10:27:08.696Z,7.75
2023-02-04T10:29:36.664Z,6.85
2023-02-04T10:32:05.064Z,6.72
2023-02-04T10:34:37.861Z,6.60
2023-02-04T10:37:20.490Z,6.60
2023-02-04T10:39:49.698Z,7.13
2023-02-04T10:42:22.932Z,7.95
2023-02-04T10:44:51.408Z,8.32
2023-02-04T10:47:21.521Z,7.97
2023-02-04T10:49:58.645Z,9.15
2023-02-04T10:52:35.170Z,7.82
2023-02-04T10:55:04.994Z,8.65
2023-02-04T10:57:36.144Z,7.72
2023-02-04T11:00:05.737Z,7.68
2023-02-04T11:02:43.302Z,8.93
2023-02-04T11:05:17.424Z,8.48
2023-02-04T11:07:49.409Z,7.40
2023-02-04T11:10:20.345Z,8.40
2023-02-04T11:13:00.688Z,8.35
2023-02-04T11:15:49.869Z,8.13
2023-02-04T11:18:31.175Z,9.18
2023-02-04T11:21:00.347Z,9.75
2023-02-04T11:23:36.267Z,8.52
2023-02-04T11:26:13.233Z,9.18
2023-02-04T11:29:04.378Z,8.63
2023-02-04T11:31:45.642Z,9.63
2023-02-04T11:34:28.906Z,11.00
2023-02-04T11:37:05.454Z,9.80
2023-02-04T11:39:38.324Z,10.35
2023-02-04T11:42:06.912Z,9.65
2023-02-04T11:44:35.215Z,10.13
2023-02-04T11:47:08.443Z,10.18
2023-02-04T11:49:37.946Z,11.52
2023-02-04T11:52:08.765Z,11.00
2023-02-04T11:54:38.034Z,11.98
2023-02-04T11:57:05.862Z,10.45
2023-02-04T11:59:33.830Z,11.55
2023-02-04T12:02:06.195Z,12.45
2023-02-04T12:04:34.084Z,11.13
2023-02-04T12:07:03.835Z,12.48
2023-02-04T12:09:32.780Z,13.77
2023-02-04T12:12:03.900Z,13.32
2023-02-04T12:14:34.520Z,15.43
2023-02-04T12:17:02.324Z,15.00
2023-02-04T12:19:30.153Z,15.15
2023-02-04T12:21:57.914Z,15.75
2023-02-04T12:24:25.726Z,15.70
2023-02-04T12:26:53.518Z,14.32
2023-02-04T12:29:22.658Z,15.90
2023-02-04T12:31:50.516Z,15.38
2023-02-04T12:34:18.406Z,15.82
2023-02-04T12:36:46.147Z,16.67
2023-02-04T12:39:14.036Z,17.23
2023-02-04T12:41:41.891Z,16.20
2023-02-04T12:44:09.656Z,16.30
2023-02-04T12:46:39.935Z,12.68
2023-02-04T12:49:09.607Z,13.13
2023-02-04T12:51:37.474Z,14.40
2023-02-04T12:54:05.611Z,14.05
2023-02-04T12:56:33.358Z,13.57
2023-02-04T12:59:01.212Z,12.52
2023-02-04T13:01:29.008Z,14.38
2023-02-04T13:03:58.111Z,15.27
2023-02-04T13:06:25.987Z,16.10
2023-02-04T13:08:53.728Z,16.08
2023-02-04T13:11:21.627Z,11.30
2023-02-04T13:13:49.438Z,12.45
2023-02-04T13:16:19.307Z,11.73
2023-02-04T13:18:47.112Z,12.70
2023-02-04T13:21:16.198Z,15.73
2023-02-04T13:23:44.116Z,17.58
2023-02-04T13:26:11.916Z,17.77
2023-02-04T13:28:39.675Z,16.95
2023-02-04T13:31:07.599Z,17.23
2023-02-04T13:33:35.440Z,17.55
2023-02-04T13:36:03.301Z,18.20
2023-02-04T13:38:32.417Z,13.27
2023-02-04T13:41:00.214Z,13.38
2023-02-04T13:43:27.973Z,10.77
2023-02-04T13:45:57.730Z,11.05
2023-02-04T13:48:25.947Z,10.30
2023-02-04T13:50:53.703Z,10.75
2023-02-04T13:53:21.484Z,10.25
2023-02-04T13:55:50.676Z,9.52
2023-02-04T13:58:18.470Z,9.07
2023-02-04T14:00:46.251Z,8.38
2023-02-04T14:03:14.082Z,8.05
2023-02-04T14:05:42.024Z,8.02
2023-02-04T14:08:09.895Z,8.95
2023-02-04T14:10:38.827Z,8.75
2023-02-04T14:13:08.220Z,7.65
2023-02-04T14:15:37.644Z,8.73
2023-02-04T14:18:05.726Z,8.63
2023-02-04T14:20:33.937Z,7.82
2023-02-04T14:23:01.925Z,9.05
2023-02-04T14:25:29.779Z,9.20
2023-02-04T14:28:00.004Z,9.15
2023-02-04T14:30:30.699Z,8.80
2023-02-04T14:32:59.107Z,8.77
2023-02-04T14:35:27.256Z,8.60
2023-02-04T14:37:55.167Z,8.48
2023-02-04T14:40:23.126Z,9.48
2023-02-04T14:42:50.944Z,9.15
2023-02-04T14:45:18.976Z,8.32
2023-02-04T14:47:48.264Z,8.35
2023-02-04T14:50:17.670Z,8.27
2023-02-04T14:52:45.499Z,8.30
2023-02-04T14:55:14.429Z,8.55
2023-02-04T14:57:42.321Z,8.20
2023-02-04T15:00:11.484Z,8.15
2023-02-04T15:02:40.182Z,8.40
2023-02-04T15:05:10.229Z,8.23
2023-02-04T15:07:38.788Z,7.60
2023-02-04T15:10:07.672Z,7.95
2023-02-04T15:12:35.627Z,8.38
2023-02-04T15:15:03.469Z,6.68
2023-02-04T15:17:31.318Z,8.75
2023-02-04T15:19:59.209Z,8.40
2023-02-04T15:22:28.309Z,8.23
2023-02-04T15:24:56.160Z,7.47
2023-02-04T15:27:24.391Z,7.88
2023-02-04T15:29:52.164Z,7.97
2023-02-04T15:32:19.981Z,8.20
2023-02-04T15:34:47.751Z,8.57
2023-02-04T15:37:16.048Z,8.55
2023-02-04T15:39:45.219Z,8.35
2023-02-04T15:42:13.093Z,7.88
2023-02-04T15:44:40.968Z,7.20
2023-02-04T15:47:08.830Z,6.30
2023-02-04T15:49:36.742Z,6.82
2023-02-04T15:52:08.887Z,7.38
2023-02-04T15:54:40.074Z,6.63
2023-02-04T15:57:09.345Z,5.07
2023-02-04T15:59:37.217Z,6.47
2023-02-04T16:02:04.992Z,5.43
2023-02-04T16:04:32.785Z,5.97
2023-02-04T16:07:00.838Z,5.32
2023-02-04T16:09:28.611Z,6.10
2023-02-04T16:11:56.451Z,5.63
2023-02-04T16:14:25.655Z,5.80
2023-02-04T16:16:53.503Z,5.22
2023-02-04T16:19:21.320Z,5.32
2023-02-04T16:21:49.095Z,5.50
2023-02-04T16:24:18.467Z,5.38
2023-02-04T16:26:46.455Z,5.57
2023-02-04T16:29:14.331Z,5.53
2023-02-04T16:31:43.539Z,5.53
2023-02-04T16:34:11.340Z,6.43
2023-02-04T16:36:39.095Z,6.17
2023-02-04T16:39:06.956Z,6.10
2023-02-04T16:41:34.776Z,15.07
2023-02-04T16:44:02.619Z,7.73
2023-02-04T16:46:33.581Z,5.83
2023-02-04T16:49:04.950Z,6.43
2023-02-04T16:51:32.777Z,4.97
2023-02-04T16:54:00.581Z,5.43
2023-02-04T16:56:35.058Z,6.17
2023-02-04T16:59:03.375Z,5.60
2023-02-04T17:01:31.809Z,5.27
2023-02-04T17:03:59.605Z,6.27
2023-02-04T17:06:30.438Z,5.37
2023-02-04T17:08:58.250Z,6.10
2023-02-04T17:11:29.882Z,5.77
2023-02-04T17:13:58.325Z,6.70
2023-02-04T17:16:26.462Z,6.90
2023-02-04T17:18:54.983Z,6.87
2023-02-04T17:21:23.013Z,7.53
2023-02-04T17:23:52.214Z,7.00
2023-02-04T17:26:20.479Z,7.40
2023-02-04T17:28:48.330Z,7.67
2023-02-04T17:31:16.187Z,7.90
2023-02-04T17:33:43.999Z,8.73
2023-02-04T17:36:13.698Z,7.33
2023-02-04T17:38:41.467Z,8.73
2023-02-04T17:41:10.677Z,7.20
2023-02-04T17:43:38.525Z,8.73
2023-02-04T17:46:06.472Z,8.70
2023-02-04T17:48:34.633Z,8.63
2023-02-04T17:51:02.443Z,10.40
2023-02-04T17:53:30.826Z,9.80
2023-02-04T17:55:58.658Z,10.43
2023-02-04T17:58:30.866Z,9.20
2023-02-04T18:01:00.226Z,9.70
2023-02-04T18:03:30.389Z,10.47
2023-02-04T18:05:58.451Z,10.20
2023-02-04T18:08:31.727Z,10.57
2023-02-04T18:10:59.750Z,11.13
2023-02-04T18:13:32.811Z,11.27
2023-02-04T18:16:02.831Z,11.90
2023-02-04T18:18:35.821Z,11.20
2023-02-04T18:21:17.906Z,9.83
2023-02-04T18:23:46.400Z,12.27
2023-02-04T18:26:18.893Z,12.20
2023-02-04T18:28:49.666Z,12.13
2023-02-04T18:31:34.038Z,11.90
2023-02-04T18:34:02.516Z,14.30
2023-02-04T18:36:33.398Z,14.30
2023-02-04T18:39:14.025Z,13.07
2023-02-04T18:41:45.024Z,13.93
2023-02-04T18:44:31.343Z,13.13
2023-02-04T18:47:00.623Z,12.00
2023-02-04T18:49:29.564Z,13.23
2023-02-04T18:51:59.608Z,10.73
2023-02-04T18:54:30.765Z,10.57
2023-02-04T18:57:28.721Z,10.47
2023-02-04T19:00:23.620Z,10.97
2023-02-04T19:02:54.926Z,10.90
2023-02-04T19:05:34.425Z,9.97
2023-02-04T19:08:22.549Z,10.53
2023-02-04T19:10:51.406Z,11.17
2023-02-04T19:13:22.131Z,11.47
2023-02-04T19:16:04.148Z,11.47
2023-02-04T19:18:38.314Z,12.17
2023-02-04T19:21:22.700Z,11.97
2023-02-04T19:23:52.085Z,13.83
2023-02-04T19:26:36.699Z,13.07
2023-02-04T19:29:43.055Z,12.60
2023-02-04T19:32:45.321Z,14.07
2023-02-04T19:35:19.763Z,13.57
2023-02-04T19:37:54.532Z,13.27
2023-02-04T19:40:29.832Z,14.33
2023-02-04T19:43:16.800Z,14.23
2023-02-04T19:45:46.447Z,13.80
2023-02-04T19:48:22.619Z,13.40
2023-02-04T19:50:53.625Z,14.50
2023-02-04T19:53:22.829Z,15.73
2023-02-04T19:55:52.546Z,16.47
2023-02-04T19:58:22.613Z,13.23
2023-02-04T20:00:57.476Z,12.40
2023-02-04T20:03:35.847Z,14.70
2023-02-04T20:06:30.162Z,16.43
2023-02-04T20:09:02.643Z,15.43
2023-02-04T20:11:44.978Z,16.03
2023-02-04T20:14:24.213Z,16.17
2023-02-04T20:16:54.146Z,15.80
2023-02-04T20:19:28.918Z,16.90
2023-02-04T20:22:05.544Z,18.27
2023-02-04T20:24:36.812Z,17.63
2023-02-04T20:27:17.960Z,17.77
2023-02-04T20:29:46.120Z,16.80
2023-02-04T20:32:21.297Z,14.90
2023-02-04T20:34:50.460Z,15.23
2023-02-04T20:37:26.786Z,17.50
2023-02-04T20:39:55.174Z,17.47
2023-02-04T20:42:34.797Z,17.47
2023-02-04T20:45:27.702Z,17.80
2023-02-04T20:47:59.942Z,18.60
2023-02-04T20:50:38.122Z,18.43
2023-02-04T20:53:08.808Z,17.50
2023-02-04T20:55:39.494Z,18.10
2023-02-04T20:58:16.811Z,19.03
2023-02-04T21:00:46.091Z,16.80
2023-02-04T21:03:26.500Z,18.47
2023-02-04T21:05:57.263Z,17.37
2023-02-04T21:08:29.366Z,17.80
2023-02-04T21:10:58.033Z,17.77
2023-02-04T21:13:26.623Z,17.37
2023-02-04T21:15:54.800Z,16.67
2023-02-04T21:18:22.870Z,15.53
2023-02-04T21:20:50.639Z,17.13
2023-02-04T21:23:20.232Z,16.43
2023-02-04T21:25:48.201Z,16.40
2023-02-04T21:28:16.215Z,17.20
2023-02-04T21:30:44.136Z,17.67
2023-02-04T21:33:12.032Z,17.43
2023-02-04T21:35:40.178Z,14.87
2023-02-04T21:38:08.708Z,14.57
2023-02-04T21:40:38.963Z,14.03
2023-02-04T21:43:08.163Z,13.67
2023-02-04T21:45:37.276Z,14.20
2023-02-04T21:48:05.929Z,13.73
2023-02-04T21:50:34.330Z,13.80
2023-02-04T21:53:02.212Z,13.43
2023-02-04T21:55:30.114Z,14.17
2023-02-04T21:57:59.325Z,14.17
2023-02-04T22:00:35.691Z,12.60
2023-02-04T22:03:03.664Z,14.77
2023-02-04T22:05:31.582Z,14.83
2023-02-04T22:07:59.963Z,15.27
2023-02-04T22:10:27.853Z,14.57
2023-02-04T22:12:55.878Z,14.50
2023-02-04T22:15:24.304Z,14.87
2023-02-04T22:17:54.456Z,15.07
2023-02-04T22:20:25.217Z,16.67
2023-02-04T22:22:53.822Z,16.37
2023-02-04T22:25:22.298Z,15.50
2023-02-04T22:27:50.527Z,14.63
2023-02-04T22:30:19.858Z,14.67
2023-02-04T22:32:47.927Z,15.40
2023-02-04T22:35:17.328Z,16.50
2023-02-04T22:37:45.123Z,16.83
2023-02-04T22:40:13.745Z,16.13
2023-02-04T22:42:41.832Z,15.20
2023-02-04T22:45:11.220Z,18.17
2023-02-04T22:47:39.538Z,18.27
2023-02-04T22:50:08.203Z,20.03
2023-02-04T22:52:37.438Z,19.20
2023-02-04T22:55:05.877Z,19.73
2023-02-04T22:57:33.627Z,19.73
2023-02-04T23:00:01.415Z,21.03
2023-02-04T23:02:29.224Z,19.87
2023-02-04T23:04:57.145Z,19.27
2023-02-04T23:07:24.944Z,19.50
2023-02-04T23:09:54.111Z,20.77
2023-02-04T23:12:21.863Z,18.57
2023-02-04T23:14:50.105Z,18.57
2023-02-04T23:17:19.156Z,24.00
2023-02-04T23:19:47.108Z,21.97
2023-02-04T23:22:15.636Z,18.93
2023-02-04T23:24:44.287Z,18.10
2023-02-04T23:27:13.793Z,18.03
2023-02-04T23:29:41.778Z,19.63
2023-02-04T23:32:10.206Z,18.50
2023-02-04T23:34:38.076Z,19.43
2023-02-04T23:37:05.910Z,20.03
2023-02-04T23:39:34.175Z,17.90
2023-02-04T23:42:02.014Z,18.03
2023-02-04T23:44:31.228Z,17.20
2023-02-04T23:46:59.161Z,17.37
2023-02-04T23:49:26.927Z,17.17
2023-02-04T23:51:54.754Z,16.53
2023-02-04T23:54:23.609Z,18.50
2023-02-04T23:56:52.024Z,17.30
2023-02-04T23:59:19.975Z,16.97
